Time;durP1;ratioP1;P1;durP2;ratioP2;P2;SDS_P1;SDS_P2;PMS_P1;PMS_P2;Temp;Humidity;BMP_temperature;BMP_pressure;BME280_temperature;BME280_humidity;BME280_pressure;Samples;Min_cycle;Max_cycle;Signal;HPM_P1;HPM_P2
2022/03/16 00:01:15;;;;;;;9.88;5.30;;;8.30;42.60;;;;;;4946390;28;20070;-89
2022/03/16 00:03:41;;;;;;;8.30;5.05;;;8.30;42.60;;;;;;4975900;28;20054;-89
2022/03/16 00:06:07;;;;;;;11.38;5.50;;;8.30;42.70;;;;;;4982851;28;20058;-88
2022/03/16 00:08:33;;;;;;;8.25;5.38;;;8.30;42.70;;;;;;4979909;28;20039;-91
2022/03/16 00:10:59;;;;;;;8.85;5.18;;;8.30;42.60;;;;;;4948486;28;20047;-85
2022/03/16 00:13:25;;;;;;;8.98;5.28;;;8.30;42.70;;;;;;4979854;28;20027;-89
2022/03/16 00:15:52;;;;;;;8.18;5.72;;;8.30;42.60;;;;;;4952895;28;20031;-88
2022/03/16 00:18:19;;;;;;;10.50;5.72;;;8.20;42.60;;;;;;4970738;28;20039;-88
2022/03/16 00:20:47;;;;;;;7.40;5.15;;;8.30;42.70;;;;;;4954803;28;20036;-85
2022/03/16 00:23:16;;;;;;;9.20;5.60;;;8.20;42.60;;;;;;4944561;28;20030;-86
2022/03/16 00:25:42;;;;;;;9.35;5.50;;;8.20;42.60;;;;;;4960206;28;20050;-89
2022/03/16 00:28:09;;;;;;;11.82;5.88;;;8.20;42.70;;;;;;4926865;28;20062;-90
2022/03/16 00:30:39;;;;;;;10.27;6.65;;;8.20;42.60;;;;;;4961984;28;20035;-88
2022/03/16 00:33:05;;;;;;;10.15;6.13;;;8.20;42.60;;;;;;4929286;28;20034;-89
2022/03/16 00:35:31;;;;;;;12.57;6.63;;;8.20;42.70;;;;;;4961252;28;20042;-89
2022/03/16 00:37:57;;;;;;;11.38;6.15;;;8.20;42.60;;;;;;4958922;28;20035;-89
2022/03/16 00:40:23;;;;;;;9.23;5.60;;;8.20;42.60;;;;;;4957287;28;20398;-89
2022/03/16 00:42:49;;;;;;;12.90;6.57;;;8.10;42.60;;;;;;4959413;28;20050;-88
2022/03/16 00:45:15;;;;;;;12.30;6.10;;;8.10;42.60;;;;;;4941435;28;20047;-90
2022/03/16 00:47:41;;;;;;;11.60;6.43;;;8.20;42.60;;;;;;4960587;28;20226;-88
2022/03/16 00:50:08;;;;;;;10.07;7.05;;;8.10;42.60;;;;;;4956328;28;20054;-86
2022/03/16 00:52:34;;;;;;;9.52;6.40;;;8.10;42.60;;;;;;4959503;28;20050;-86
2022/03/16 00:55:00;;;;;;;9.95;6.32;;;8.10;42.60;;;;;;4961350;28;20414;-87
2022/03/16 00:57:26;;;;;;;10.13;6.78;;;8.10;42.60;;;;;;4949134;28;20055;-86
2022/03/16 00:59:52;;;;;;;12.02;6.63;;;8.10;42.60;;;;;;4962342;28;20054;-85
2022/03/16 01:02:18;;;;;;;9.70;6.00;;;8.10;42.60;;;;;;4967637;28;20035;-87
2022/03/16 01:04:44;;;;;;;10.30;7.28;;;8.10;42.60;;;;;;4950353;28;20050;-85
2022/03/16 01:07:10;;;;;;;13.45;7.88;;;8.00;42.60;;;;;;4947706;28;20034;-87
2022/03/16 01:09:36;;;;;;;12.85;7.20;;;8.10;42.60;;;;;;4963799;28;20047;-88
2022/03/16 01:12:03;;;;;;;14.15;7.53;;;8.00;42.60;;;;;;4962859;28;20126;-86
2022/03/16 01:14:29;;;;;;;12.23;7.78;;;8.10;42.70;;;;;;4945409;28;20039;-87
2022/03/16 01:16:55;;;;;;;13.13;7.80;;;8.00;42.60;;;;;;4961920;28;20031;-85
2022/03/16 01:19:22;;;;;;;11.40;7.72;;;8.00;42.60;;;;;;4961844;28;20123;-92
2022/03/16 01:21:48;;;;;;;11.73;7.78;;;8.00;42.60;;;;;;4972530;28;21406;-85
2022/03/16 01:24:14;;;;;;;12.30;7.65;;;8.00;42.60;;;;;;4958221;28;20031;-89
2022/03/16 01:26:42;;;;;;;15.05;8.38;;;8.00;42.60;;;;;;4969084;28;20450;-92
2022/03/16 01:29:08;;;;;;;13.52;8.57;;;8.00;42.70;;;;;;4963140;28;20047;-88
2022/03/16 01:31:35;;;;;;;12.52;8.20;;;8.00;42.70;;;;;;4961431;28;20049;-89
2022/03/16 01:34:01;;;;;;;13.70;8.10;;;8.00;42.70;;;;;;4958387;28;20043;-88
2022/03/16 01:36:27;;;;;;;13.50;7.63;;;8.00;42.60;;;;;;4960508;28;20085;-90
2022/03/16 01:38:53;;;;;;;15.50;7.75;;;8.00;42.60;;;;;;4959088;28;20425;-90
2022/03/16 01:41:18;;;;;;;14.00;7.70;;;7.90;42.60;;;;;;4963713;28;20059;-90
2022/03/16 01:43:44;;;;;;;15.93;8.25;;;8.00;42.60;;;;;;4960784;28;20114;-88
2022/03/16 01:46:10;;;;;;;14.02;8.13;;;7.90;42.50;;;;;;4959790;28;20050;-88
2022/03/16 01:48:37;;;;;;;13.90;8.18;;;7.90;42.50;;;;;;4946194;28;20061;-89
2022/03/16 01:51:04;;;;;;;13.63;8.00;;;7.90;42.50;;;;;;4959936;28;20035;-87
2022/03/16 01:53:30;;;;;;;13.05;8.52;;;7.90;42.50;;;;;;4959699;28;20035;-88
2022/03/16 01:55:56;;;;;;;16.85;8.07;;;7.90;42.50;;;;;;4947161;28;20136;-88
2022/03/16 01:58:22;;;;;;;14.25;7.82;;;7.90;42.50;;;;;;4958457;28;20034;-90
2022/03/16 02:00:48;;;;;;;15.07;7.85;;;7.90;42.60;;;;;;4948499;28;20593;-86
2022/03/16 02:03:14;;;;;;;15.10;7.95;;;7.90;42.50;;;;;;4960679;28;20057;-89
2022/03/16 02:05:40;;;;;;;11.35;7.85;;;7.90;42.50;;;;;;4961117;28;20046;-89
2022/03/16 02:08:08;;;;;;;12.25;7.57;;;7.90;42.50;;;;;;4960567;28;20419;-89
2022/03/16 02:10:34;;;;;;;11.98;7.38;;;7.80;42.50;;;;;;4960184;28;20133;-90
2022/03/16 02:13:01;;;;;;;14.00;7.93;;;7.80;42.60;;;;;;4961602;28;20049;-88
2022/03/16 02:15:27;;;;;;;12.50;7.10;;;7.80;42.50;;;;;;4959995;28;20045;-88
2022/03/16 02:17:55;;;;;;;12.68;7.47;;;7.80;42.50;;;;;;4961210;28;20066;-89
2022/03/16 02:20:27;;;;;;;10.73;6.75;;;7.80;43.10;;;;;;4959431;28;20585;-91
2022/03/16 02:22:56;;;;;;;17.60;7.55;;;7.80;42.60;;;;;;4964654;28;20082;-89
2022/03/16 02:25:24;;;;;;;13.13;6.90;;;7.80;43.20;;;;;;4961833;28;20035;-90
2022/03/16 02:27:52;;;;;;;12.45;7.22;;;7.80;42.60;;;;;;4943489;28;20035;-88
2022/03/16 02:30:20;;;;;;;11.45;7.13;;;7.80;42.60;;;;;;4947149;28;20049;-88
2022/03/16 02:32:46;;;;;;;13.27;7.63;;;7.80;42.60;;;;;;4940065;28;20160;-90
2022/03/16 02:35:13;;;;;;;14.02;7.13;;;7.70;42.50;;;;;;4958609;28;20039;-88
2022/03/16 02:37:39;;;;;;;11.88;7.35;;;7.70;42.50;;;;;;4960014;28;20126;-90
2022/03/16 02:40:08;;;;;;;12.48;7.70;;;7.70;42.50;;;;;;4959493;28;20031;-90
2022/03/16 02:42:34;;;;;;;12.95;7.20;;;7.70;42.50;;;;;;4960606;28;20433;-89
2022/03/16 02:45:01;;;;;;;10.30;7.00;;;7.70;42.50;;;;;;4960561;28;20073;-90
2022/03/16 02:47:28;;;;;;;14.52;7.53;;;7.70;42.50;;;;;;4959927;28;20584;-90
2022/03/16 02:49:54;;;;;;;11.75;6.72;;;7.70;42.50;;;;;;4928343;28;20170;-88
2022/03/16 02:52:22;;;;;;;13.27;7.13;;;7.70;42.50;;;;;;4959537;28;20027;-90
2022/03/16 02:54:49;;;;;;;14.25;7.93;;;7.70;42.50;;;;;;4958823;28;20421;-90
2022/03/16 02:57:16;;;;;;;14.00;7.13;;;7.70;42.60;;;;;;4965504;28;20035;-91
2022/03/16 02:59:43;;;;;;;13.70;8.40;;;7.70;42.50;;;;;;4959122;28;20166;-87
2022/03/16 03:02:10;;;;;;;15.70;8.10;;;7.70;42.60;;;;;;4958172;28;20180;-87
2022/03/16 03:04:36;;;;;;;15.65;8.57;;;7.60;42.50;;;;;;4958609;28;20564;-87
2022/03/16 03:07:02;;;;;;;16.17;8.55;;;7.60;42.40;;;;;;4958346;28;20038;-87
2022/03/16 03:09:28;;;;;;;15.52;7.97;;;7.60;42.40;;;;;;4942212;28;20089;-89
2022/03/16 03:11:55;;;;;;;18.25;9.05;;;7.60;43.10;;;;;;4942350;28;20432;-87
2022/03/16 03:14:21;;;;;;;17.25;8.93;;;7.60;42.40;;;;;;4940822;28;20113;-88
2022/03/16 03:16:47;;;;;;;16.73;8.68;;;7.60;42.50;;;;;;4956975;28;20094;-88
2022/03/16 03:19:13;;;;;;;16.65;9.35;;;7.60;42.50;;;;;;4957102;28;20422;-88
2022/03/16 03:21:39;;;;;;;17.92;8.77;;;7.60;42.50;;;;;;4941742;28;20047;-88
2022/03/16 03:24:05;;;;;;;15.90;8.63;;;7.60;42.40;;;;;;4958014;28;20035;-88
2022/03/16 03:26:32;;;;;;;16.25;8.80;;;7.60;42.50;;;;;;4940545;28;20035;-87
2022/03/16 03:28:58;;;;;;;16.45;8.75;;;7.50;42.50;;;;;;4958005;28;20082;-88
2022/03/16 03:31:24;;;;;;;14.32;8.38;;;7.50;42.50;;;;;;4939204;28;20067;-88
2022/03/16 03:33:50;;;;;;;14.88;8.40;;;7.50;42.50;;;;;;4960488;28;20405;-87
2022/03/16 03:36:16;;;;;;;14.45;8.65;;;7.50;42.50;;;;;;4940408;28;20035;-88
2022/03/16 03:38:42;;;;;;;16.27;8.48;;;7.50;42.40;;;;;;4956474;28;20035;-89
2022/03/16 03:41:07;;;;;;;19.08;8.23;;;7.50;42.50;;;;;;4957809;28;20046;-86
2022/03/16 03:43:33;;;;;;;17.27;8.45;;;7.50;42.50;;;;;;4939522;28;20042;-89
2022/03/16 03:45:59;;;;;;;16.77;8.95;;;7.50;42.60;;;;;;4958802;28;20450;-89
2022/03/16 03:48:25;;;;;;;14.90;8.10;;;7.50;42.80;;;;;;4958925;28;20035;-89
2022/03/16 03:50:51;;;;;;;13.95;8.45;;;7.50;42.80;;;;;;4957774;28;20070;-89
2022/03/16 03:53:17;;;;;;;16.02;8.90;;;7.50;42.90;;;;;;4942685;28;20505;-90
2022/03/16 03:55:43;;;;;;;15.23;8.73;;;7.50;42.90;;;;;;4955272;28;20031;-89
2022/03/16 03:58:09;;;;;;;15.60;8.80;;;7.40;42.90;;;;;;4958703;28;20046;-88
2022/03/16 04:00:35;;;;;;;16.23;8.57;;;7.50;43.10;;;;;;4957610;28;20279;-90
2022/03/16 04:03:01;;;;;;;15.38;8.40;;;7.50;43.10;;;;;;4958847;28;20039;-89
2022/03/16 04:05:27;;;;;;;16.65;8.32;;;7.50;43.10;;;;;;4959039;28;20101;-87
2022/03/16 04:07:53;;;;;;;18.15;8.85;;;7.50;43.10;;;;;;4941654;28;20512;-85
2022/03/16 04:10:19;;;;;;;15.10;8.32;;;7.50;43.10;;;;;;4940248;28;20034;-84
2022/03/16 04:12:45;;;;;;;14.40;8.65;;;7.50;43.20;;;;;;4958240;28;20038;-84
2022/03/16 04:15:11;;;;;;;16.40;7.82;;;7.50;43.30;;;;;;4957691;28;20075;-83
2022/03/16 04:17:37;;;;;;;17.08;8.20;;;7.50;43.40;;;;;;4958822;28;20042;-85
2022/03/16 04:20:05;;;;;;;16.77;8.65;;;7.50;43.50;;;;;;4955287;28;20047;-89
2022/03/16 04:22:31;;;;;;;14.90;8.63;;;7.50;43.50;;;;;;4955144;28;20042;-88
2022/03/16 04:24:57;;;;;;;15.10;8.65;;;7.50;43.60;;;;;;4956722;28;20042;-85
2022/03/16 04:27:23;;;;;;;15.18;8.50;;;7.50;43.80;;;;;;4958282;28;20039;-85
2022/03/16 04:29:50;;;;;;;15.73;8.60;;;7.50;43.80;;;;;;4955687;28;20446;-84
2022/03/16 04:32:16;;;;;;;14.63;8.05;;;7.50;43.80;;;;;;4957461;28;20070;-90
2022/03/16 04:34:42;;;;;;;13.70;8.10;;;7.50;43.90;;;;;;4959214;28;20045;-92
2022/03/16 04:37:08;;;;;;;15.13;9.27;;;7.50;43.90;;;;;;4959659;28;20091;-88
2022/03/16 04:39:34;;;;;;;14.30;8.73;;;7.50;43.90;;;;;;4960631;28;20023;-90
2022/03/16 04:42:00;;;;;;;17.27;8.85;;;7.50;43.80;;;;;;4956524;28;20058;-87
2022/03/16 04:44:26;;;;;;;13.45;8.57;;;7.50;43.50;;;;;;4955572;28;20049;-86
2022/03/16 04:46:52;;;;;;;13.85;8.35;;;7.50;43.60;;;;;;4955084;28;20178;-86
2022/03/16 04:49:18;;;;;;;14.98;8.40;;;7.50;43.70;;;;;;4954359;28;20042;-86
2022/03/16 04:51:44;;;;;;;13.88;8.90;;;7.50;43.80;;;;;;4960700;28;20449;-83
2022/03/16 04:54:10;;;;;;;14.48;7.72;;;7.50;43.90;;;;;;4958142;28;20058;-84
2022/03/16 04:56:36;;;;;;;14.63;9.18;;;7.50;44.00;;;;;;4960099;28;20418;-83
2022/03/16 04:59:03;;;;;;;12.60;7.80;;;7.60;43.90;;;;;;4956900;28;20044;-83
2022/03/16 05:01:31;;;;;;;15.30;9.07;;;7.50;43.80;;;;;;4943079;28;20058;-82
2022/03/16 05:03:57;;;;;;;14.05;8.57;;;7.50;43.80;;;;;;4958640;28;20035;-83
2022/03/16 05:06:23;;;;;;;15.10;8.88;;;7.60;43.80;;;;;;4939845;28;20494;-87
2022/03/16 05:08:50;;;;;;;15.18;8.50;;;7.50;43.70;;;;;;4944715;28;20126;-85
2022/03/16 05:11:17;;;;;;;15.05;8.90;;;7.50;43.60;;;;;;4959679;28;20043;-93
2022/03/16 05:13:44;;;;;;;13.38;8.70;;;7.50;43.50;;;;;;4956804;28;20647;-89
2022/03/16 05:16:10;;;;;;;14.45;8.15;;;7.50;43.30;;;;;;4956527;28;20038;-85
2022/03/16 05:18:38;;;;;;;13.55;8.57;;;7.50;43.10;;;;;;4957289;28;20031;-91
2022/03/16 05:21:06;;;;;;;15.40;8.13;;;7.50;43.00;;;;;;4956371;28;20416;-89
2022/03/16 05:23:32;;;;;;;12.57;7.72;;;7.50;42.90;;;;;;4957721;28;20043;-89
2022/03/16 05:25:58;;;;;;;16.85;8.18;;;7.50;42.90;;;;;;4957833;28;20043;-88
2022/03/16 05:28:24;;;;;;;16.90;8.80;;;7.50;42.80;;;;;;4958468;28;20038;-89
2022/03/16 05:30:50;;;;;;;14.82;8.93;;;7.50;42.80;;;;;;4959056;28;20039;-87
2022/03/16 05:33:16;;;;;;;15.57;8.60;;;7.50;42.80;;;;;;4959350;28;20034;-89
2022/03/16 05:35:42;;;;;;;12.98;8.35;;;7.50;42.80;;;;;;4958649;28;20062;-84
2022/03/16 05:38:12;;;;;;;18.98;8.30;;;7.50;42.90;;;;;;4959593;28;20421;-88
2022/03/16 05:40:42;;;;;;;13.20;8.15;;;7.60;42.90;;;;;;4963371;28;20041;-89
2022/03/16 05:43:09;;;;;;;18.52;9.15;;;7.70;43.00;;;;;;4968451;28;20138;-88
2022/03/16 05:45:36;;;;;;;15.35;8.30;;;7.80;43.30;;;;;;4965762;28;20030;-85
2022/03/16 05:48:02;;;;;;;13.85;8.45;;;7.90;42.70;;;;;;4959813;28;20494;-89
2022/03/16 05:50:28;;;;;;;12.05;7.88;;;8.00;42.80;;;;;;4945060;28;20167;-89
2022/03/16 05:52:59;;;;;;;15.32;7.85;;;8.10;42.80;;;;;;4946852;28;20059;-84
2022/03/16 05:55:26;;;;;;;13.07;7.85;;;8.20;43.50;;;;;;4957977;28;20054;-80
2022/03/16 05:57:52;;;;;;;13.30;7.72;;;8.30;42.80;;;;;;4958132;28;20035;-82
2022/03/16 06:00:19;;;;;;;13.95;7.80;;;8.40;42.80;;;;;;4959140;28;20086;-83
2022/03/16 06:02:46;;;;;;;11.95;8.10;;;8.50;42.90;;;;;;4940123;28;20114;-82
2022/03/16 06:05:13;;;;;;;11.65;7.05;;;8.60;43.00;;;;;;4956118;28;20038;-85
2022/03/16 06:07:40;;;;;;;10.95;6.85;;;8.70;43.10;;;;;;4959584;28;20113;-85
2022/03/16 06:10:08;;;;;;;12.55;7.50;;;8.80;43.10;;;;;;4942323;28;20502;-85
2022/03/16 06:12:34;;;;;;;11.32;7.25;;;8.80;43.20;;;;;;4957975;28;20138;-85
2022/03/16 06:15:00;;;;;;;12.10;6.82;;;8.90;43.10;;;;;;4955832;28;20315;-85
2022/03/16 06:17:26;;;;;;;15.60;7.13;;;9.00;43.20;;;;;;4940533;28;20043;-84
2022/03/16 06:19:52;;;;;;;14.68;7.32;;;9.10;43.20;;;;;;4917280;28;20036;-82
2022/03/16 06:22:17;;;;;;;10.63;6.65;;;9.20;43.20;;;;;;4956360;28;20038;-83
2022/03/16 06:24:43;;;;;;;13.30;7.03;;;9.30;43.30;;;;;;4958370;28;20068;-84
2022/03/16 06:27:09;;;;;;;14.45;6.90;;;9.40;43.30;;;;;;4956423;28;20198;-83
2022/03/16 06:29:35;;;;;;;11.73;6.53;;;9.50;43.40;;;;;;4945439;28;20038;-85
2022/03/16 06:32:01;;;;;;;10.35;6.63;;;9.60;43.40;;;;;;4954987;28;20039;-83
2022/03/16 06:34:28;;;;;;;12.38;6.07;;;9.70;43.40;;;;;;4957258;28;21261;-84
2022/03/16 06:36:54;;;;;;;8.80;6.10;;;9.80;43.40;;;;;;4957952;28;20039;-84
2022/03/16 06:39:20;;;;;;;10.30;6.20;;;9.90;43.40;;;;;;4957583;28;20035;-83
2022/03/16 06:41:46;;;;;;;10.60;5.82;;;9.90;43.40;;;;;;4919752;28;1207227;-85
2022/03/16 06:44:12;;;;;;;11.70;5.88;;;10.00;43.40;;;;;;4958622;28;20031;-85
2022/03/16 06:46:38;;;;;;;9.60;5.90;;;10.10;43.40;;;;;;4961816;28;20101;-86
2022/03/16 06:49:04;;;;;;;8.35;5.40;;;10.20;43.40;;;;;;4957642;28;20077;-85
2022/03/16 06:51:30;;;;;;;8.48;5.72;;;10.30;43.50;;;;;;4958147;28;20039;-84
2022/03/16 06:53:56;;;;;;;8.48;5.25;;;10.30;43.40;;;;;;4957522;28;20540;-83
2022/03/16 06:56:21;;;;;;;9.55;5.10;;;10.40;43.50;;;;;;4956389;28;20031;-83
2022/03/16 06:58:48;;;;;;;6.57;5.13;;;10.50;43.50;;;;;;4929019;28;20182;-84
2022/03/16 07:01:14;;;;;;;8.98;5.40;;;10.60;43.50;;;;;;4933679;28;20041;-84
2022/03/16 07:03:40;;;;;;;7.30;5.00;;;10.60;43.50;;;;;;4959938;28;20035;-85
2022/03/16 07:06:08;;;;;;;8.38;5.72;;;10.70;43.50;;;;;;4942141;28;20069;-85
2022/03/16 07:08:34;;;;;;;10.73;5.53;;;10.80;43.60;;;;;;4947116;28;20059;-83
2022/03/16 07:11:00;;;;;;;9.43;5.68;;;10.90;43.50;;;;;;4959790;28;20059;-83
2022/03/16 07:13:26;;;;;;;6.40;5.13;;;11.00;43.60;;;;;;4956842;28;20525;-83
2022/03/16 07:15:52;;;;;;;5.97;4.80;;;11.00;43.50;;;;;;4958443;28;20030;-83
2022/03/16 07:18:20;;;;;;;6.93;4.78;;;11.10;43.50;;;;;;4955917;28;20031;-85
2022/03/16 07:20:47;;;;;;;8.75;5.30;;;11.20;43.50;;;;;;4956993;28;20457;-83
2022/03/16 07:23:15;;;;;;;9.25;4.85;;;11.20;43.40;;;;;;4953066;28;20035;-84
2022/03/16 07:25:44;;;;;;;6.90;4.65;;;11.30;43.40;;;;;;4956957;28;20039;-84
2022/03/16 07:28:11;;;;;;;6.00;4.47;;;11.30;43.40;;;;;;4940675;28;20035;-85
2022/03/16 07:30:38;;;;;;;8.48;4.72;;;11.40;43.30;;;;;;4958426;28;20122;-84
2022/03/16 07:33:06;;;;;;;6.25;4.50;;;11.40;43.20;;;;;;4916553;28;20031;-82
2022/03/16 07:35:34;;;;;;;6.03;4.70;;;11.50;43.30;;;;;;4956196;28;20525;-81
2022/03/16 07:38:03;;;;;;;7.40;4.57;;;11.60;43.30;;;;;;4945018;28;20038;-82
2022/03/16 07:40:35;;;;;;;6.25;4.78;;;11.60;43.40;;;;;;4956965;28;20027;-82
2022/03/16 07:43:04;;;;;;;5.88;4.70;;;11.60;43.40;;;;;;4957057;28;20035;-81
2022/03/16 07:45:30;;;;;;;7.65;4.65;;;11.70;43.40;;;;;;4957995;28;20042;-80
2022/03/16 07:47:56;;;;;;;6.07;4.70;;;11.70;43.50;;;;;;4958049;28;20043;-83
2022/03/16 07:50:23;;;;;;;5.57;4.70;;;11.70;43.60;;;;;;4958744;28;20032;-83
2022/03/16 07:52:49;;;;;;;6.35;4.22;;;11.70;43.60;;;;;;4957754;28;20367;-84
2022/03/16 07:55:15;;;;;;;7.82;4.82;;;11.70;43.60;;;;;;4957525;28;20093;-84
2022/03/16 07:57:43;;;;;;;8.15;5.22;;;11.80;43.70;;;;;;4956386;28;20035;-82
2022/03/16 08:00:12;;;;;;;7.28;5.03;;;11.80;43.70;;;;;;4971968;28;20748;-83
2022/03/16 08:02:43;;;;;;;8.15;5.30;;;11.80;43.70;;;;;;4927483;28;20085;-83
2022/03/16 08:05:10;;;;;;;5.57;4.50;;;11.80;43.70;;;;;;4956562;28;20039;-83
2022/03/16 08:07:38;;;;;;;8.27;4.93;;;11.80;43.90;;;;;;4937727;28;20125;-83
2022/03/16 08:10:05;;;;;;;6.50;4.82;;;11.80;43.90;;;;;;4929123;28;20034;-82
2022/03/16 08:12:31;;;;;;;6.82;4.80;;;11.80;43.90;;;;;;4926792;28;20043;-81
2022/03/16 08:14:57;;;;;;;6.50;5.00;;;11.80;44.00;;;;;;4928545;28;20514;-80
2022/03/16 08:17:27;;;;;;;7.90;4.78;;;11.80;43.90;;;;;;4955346;28;20037;-81
2022/03/16 08:19:53;;;;;;;7.38;5.40;;;11.80;43.90;;;;;;4954857;28;20035;-82
2022/03/16 08:22:29;;;;;;;8.20;5.22;;;11.80;44.00;;;;;;4955240;28;20031;-82
2022/03/16 08:24:57;;;;;;;5.90;4.70;;;11.80;44.00;;;;;;4956323;28;20532;-83
2022/03/16 08:27:23;;;;;;;6.78;4.68;;;11.80;44.00;;;;;;4949864;28;20043;-83
2022/03/16 08:29:50;;;;;;;6.82;5.05;;;11.80;44.00;;;;;;4939279;28;20047;-82
2022/03/16 08:32:17;;;;;;;5.75;4.70;;;11.80;44.00;;;;;;4956000;28;20046;-84
2022/03/16 08:34:44;;;;;;;5.68;4.85;;;11.80;44.00;;;;;;4955667;28;20504;-85
2022/03/16 08:37:10;;;;;;;5.65;4.55;;;11.70;43.90;;;;;;4923970;28;20043;-84
2022/03/16 08:39:38;;;;;;;6.05;4.75;;;11.80;43.90;;;;;;4957409;28;20043;-86
2022/03/16 08:42:05;;;;;;;6.68;4.40;;;11.80;43.90;;;;;;4956198;28;20051;-85
2022/03/16 08:44:31;;;;;;;6.40;4.85;;;11.80;43.90;;;;;;4955582;28;20122;-86
2022/03/16 08:46:58;;;;;;;7.50;4.78;;;11.80;44.00;;;;;;4956703;28;20035;-87
2022/03/16 08:49:24;;;;;;;8.23;5.55;;;11.80;43.90;;;;;;4942657;28;20075;-86
2022/03/16 08:51:50;;;;;;;6.65;5.15;;;11.80;43.80;;;;;;4957699;28;20039;-85
2022/03/16 08:54:16;;;;;;;8.80;5.28;;;11.80;43.70;;;;;;4917794;28;20130;-86
2022/03/16 08:56:43;;;;;;;7.15;5.18;;;11.80;43.70;;;;;;4956447;28;21193;-85
2022/03/16 08:59:10;;;;;;;5.97;4.90;;;11.80;43.60;;;;;;4944466;28;20038;-86
2022/03/16 09:01:36;;;;;;;7.15;4.65;;;11.80;43.60;;;;;;4962604;28;20046;-85
2022/03/16 09:04:02;;;;;;;12.43;5.28;;;11.80;43.60;;;;;;4931770;28;20556;-80
2022/03/16 09:06:29;;;;;;;7.35;5.55;;;11.80;43.70;;;;;;4970437;28;20031;-85
2022/03/16 09:08:55;;;;;;;9.93;5.45;;;11.70;40.70;;;;;;4957225;28;20066;-86
2022/03/16 09:11:21;;;;;;;8.45;5.78;;;11.60;37.90;;;;;;4971332;28;20042;-85
2022/03/16 09:13:47;;;;;;;7.90;5.30;;;11.30;36.80;;;;;;4942421;28;20414;-85
2022/03/16 09:16:14;;;;;;;8.00;5.55;;;11.20;36.90;;;;;;4959489;28;20050;-86
2022/03/16 09:18:40;;;;;;;8.85;5.43;;;11.00;36.30;;;;;;4966331;28;20046;-87
2022/03/16 09:21:07;;;;;;;8.70;5.70;;;10.90;35.60;;;;;;4928976;28;20043;-86
2022/03/16 09:23:33;;;;;;;8.68;5.63;;;10.60;35.40;;;;;;4950870;28;20345;-85
2022/03/16 09:26:00;;;;;;;7.88;4.70;;;10.50;35.40;;;;;;4945553;28;20386;-84
2022/03/16 09:28:27;;;;;;;7.15;4.55;;;10.30;34.90;;;;;;4959620;28;20038;-85
2022/03/16 09:30:53;;;;;;;8.23;4.70;;;10.20;34.90;;;;;;4960148;28;20085;-84
2022/03/16 09:33:21;;;;;;;11.32;5.47;;;10.10;35.10;;;;;;4959834;28;20207;-83
2022/03/16 09:35:48;;;;;;;11.68;6.28;;;10.00;35.00;;;;;;4956900;28;20035;-86
2022/03/16 09:38:19;;;;;;;8.55;5.70;;;9.90;35.00;;;;;;4960022;28;20448;-85
2022/03/16 09:40:49;;;;;;;8.23;5.75;;;9.80;35.20;;;;;;4946936;28;20051;-86
2022/03/16 09:43:18;;;;;;;9.32;5.57;;;9.60;35.90;;;;;;4959890;28;20035;-87
2022/03/16 09:45:55;;;;;;;6.88;5.38;;;9.50;35.20;;;;;;4943493;28;20038;-81
2022/03/16 09:48:23;;;;;;;13.75;5.20;;;9.50;36.40;;;;;;4938072;28;20035;-90
2022/03/16 09:50:53;;;;;;;8.73;5.68;;;9.60;39.50;;;;;;4956845;28;20043;-91
2022/03/16 09:53:22;;;;;;;7.70;5.20;;;9.70;39.90;;;;;;4967617;28;20027;-87
2022/03/16 09:55:52;;;;;;;8.40;5.75;;;9.80;39.30;;;;;;4962732;28;20034;-90
2022/03/16 09:58:20;;;;;;;9.85;5.10;;;9.90;38.70;;;;;;4973264;28;20646;-90
2022/03/16 10:00:47;;;;;;;8.05;5.32;;;10.00;38.20;;;;;;4964831;28;20027;-83
2022/03/16 10:03:15;;;;;;;7.25;5.45;;;10.10;37.80;;;;;;4945539;28;20035;-90
2022/03/16 10:05:41;;;;;;;8.05;5.28;;;10.10;37.40;;;;;;4945354;28;20130;-89
2022/03/16 10:08:08;;;;;;;7.15;5.50;;;10.10;37.20;;;;;;4939212;29;20051;-88
2022/03/16 10:13:23;;;;;;;16.50;5.68;;;10.10;39.50;;;;;;4966927;28;20030;-86
2022/03/16 10:16:09;;;;;;;10.20;6.05;;;10.20;40.90;;;;;;4949757;28;20090;-91
2022/03/16 10:18:36;;;;;;;6.57;4.90;;;10.30;40.30;;;;;;4950102;28;20039;-90
2022/03/16 10:21:04;;;;;;;11.60;5.60;;;10.30;39.50;;;;;;4956419;28;20282;-90
2022/03/16 10:23:30;;;;;;;8.93;5.32;;;10.30;38.80;;;;;;4932823;28;20035;-88
2022/03/16 10:26:00;;;;;;;7.95;5.30;;;10.30;38.20;;;;;;4948322;28;20058;-88
2022/03/16 10:28:29;;;;;;;7.10;5.03;;;10.20;37.70;;;;;;4936018;28;20493;-87
2022/03/16 10:31:05;;;;;;;8.95;5.50;;;10.20;37.50;;;;;;4937868;29;20126;-86
2022/03/16 10:33:33;;;;;;;7.28;5.10;;;10.20;37.30;;;;;;4966147;28;20042;-88
2022/03/16 10:36:00;;;;;;;6.05;4.53;;;10.20;37.10;;;;;;4960334;28;20030;-86
2022/03/16 10:38:28;;;;;;;7.10;5.07;;;10.20;37.00;;;;;;4941149;28;20086;-87
2022/03/16 10:41:08;;;;;;;7.28;5.13;;;10.20;36.90;;;;;;4958454;28;20047;-86
2022/03/16 10:46:34;;;;;;;8.82;5.55;;;10.10;36.60;;;;;;4960566;28;20039;-85
2022/03/16 10:49:09;;;;;;;6.75;5.07;;;10.20;36.50;;;;;;4961232;28;20446;-85
2022/03/16 10:51:37;;;;;;;9.65;5.63;;;10.10;36.40;;;;;;4957351;28;20552;-85
2022/03/16 10:54:05;;;;;;;8.48;4.80;;;10.10;36.40;;;;;;4940003;28;20045;-87
2022/03/16 10:56:31;;;;;;;6.88;5.25;;;10.10;36.40;;;;;;4930599;28;21842;-86
2022/03/16 10:58:59;;;;;;;7.80;5.13;;;10.10;36.30;;;;;;4941454;28;20043;-85
2022/03/16 11:01:27;;;;;;;8.48;5.22;;;10.00;36.20;;;;;;4946511;28;20433;-87
2022/03/16 11:03:58;;;;;;;7.53;4.88;;;10.00;36.10;;;;;;4941997;28;20659;-87
2022/03/16 11:06:25;;;;;;;7.35;5.10;;;10.00;36.20;;;;;;4940675;28;20043;-87
2022/03/16 11:08:52;;;;;;;7.95;5.38;;;10.00;36.20;;;;;;4955529;28;20053;-86
2022/03/16 11:14:04;;;;;;;9.38;5.30;;;10.00;36.20;;;;;;4956850;28;20035;-87
2022/03/16 11:16:33;;;;;;;7.05;5.80;;;10.00;36.20;;;;;;4957034;28;21325;-88
2022/03/16 11:19:03;;;;;;;7.53;5.32;;;9.90;36.10;;;;;;4958085;28;20498;-88
2022/03/16 11:21:46;;;;;;;6.78;4.90;;;9.90;36.00;;;;;;4917816;28;20066;-87
2022/03/16 11:24:24;;;;;;;6.88;5.32;;;9.80;36.10;;;;;;4956595;28;20133;-86
2022/03/16 11:27:22;;;;;;;8.23;5.43;;;9.80;36.10;;;;;;4933469;28;20036;-88
2022/03/16 11:30:12;;;;;;;7.63;5.13;;;9.80;36.00;;;;;;4940958;28;20126;-85
2022/03/16 11:32:43;;;;;;;6.68;4.65;;;9.70;35.90;;;;;;4963609;28;20133;-87
2022/03/16 11:35:18;;;;;;;8.07;5.43;;;9.70;35.90;;;;;;4933543;28;20045;-85
2022/03/16 11:37:48;;;;;;;6.93;4.75;;;9.60;35.70;;;;;;4929172;28;20058;-86
2022/03/16 11:40:25;;;;;;;7.35;5.00;;;9.60;35.70;;;;;;4940544;28;20054;-87
2022/03/16 11:43:06;;;;;;;6.82;5.05;;;9.50;35.60;;;;;;4958064;28;20055;-87
2022/03/16 11:45:41;;;;;;;8.43;4.60;;;9.50;35.60;;;;;;4940751;28;20545;-86
2022/03/16 11:48:31;;;;;;;7.05;4.55;;;9.50;35.60;;;;;;4924714;28;20149;-87
2022/03/16 11:51:09;;;;;;;5.95;4.55;;;9.50;35.70;;;;;;4946443;28;20073;-87
2022/03/16 11:56:25;;;;;;;5.75;4.35;;;9.40;35.70;;;;;;4958552;28;20030;-85
2022/03/16 11:59:06;;;;;;;7.93;4.65;;;9.40;35.70;;;;;;4936704;28;20498;-85
2022/03/16 12:01:33;;;;;;;6.45;4.50;;;9.30;35.70;;;;;;4956893;28;20097;-86
2022/03/16 12:04:22;;;;;;;8.40;4.85;;;9.30;35.60;;;;;;4957217;28;20062;-84
2022/03/16 12:07:09;;;;;;;6.65;4.35;;;9.30;35.50;;;;;;4944576;28;20039;-85
2022/03/16 12:09:45;;;;;;;5.38;4.18;;;9.30;35.50;;;;;;4929161;28;20047;-83
2022/03/16 12:12:59;;;;;;;6.30;4.43;;;9.30;35.50;;;;;;4960310;28;20090;-84
2022/03/16 12:15:37;;;;;;;6.43;4.85;;;9.30;35.50;;;;;;4956317;28;20065;-84
2022/03/16 12:18:14;;;;;;;7.47;4.50;;;9.30;35.60;;;;;;4956078;28;20037;-86
2022/03/16 12:20:45;;;;;;;5.63;4.47;;;9.20;35.50;;;;;;4957332;28;20039;-85
2022/03/16 12:23:16;;;;;;;5.50;4.20;;;9.20;35.60;;;;;;4956010;28;20525;-84
2022/03/16 12:25:46;;;;;;;7.18;4.15;;;9.20;35.40;;;;;;4957945;28;20090;-85
2022/03/16 12:31:08;;;;;;;6.57;3.90;;;9.20;35.30;;;;;;4955659;28;20043;-84
2022/03/16 12:33:42;;;;;;;4.93;4.00;;;9.20;35.30;;;;;;4971270;28;20053;-88
2022/03/16 12:36:12;;;;;;;6.65;3.90;;;9.10;35.30;;;;;;4927499;28;20027;-85
2022/03/16 12:38:43;;;;;;;5.15;3.50;;;9.10;35.30;;;;;;4954845;28;20174;-84
2022/03/16 12:44:06;;;;;;;5.68;3.88;;;9.10;35.30;;;;;;4925409;28;20041;-87
2022/03/16 12:46:44;;;;;;;8.88;4.28;;;9.10;35.30;;;;;;4939009;28;20049;-84
2022/03/16 12:49:11;;;;;;;6.57;4.00;;;9.10;35.20;;;;;;4939086;28;20039;-85
2022/03/16 12:51:52;;;;;;;5.20;3.90;;;9.10;35.20;;;;;;4943412;28;20062;-84
2022/03/16 12:54:26;;;;;;;6.43;4.05;;;9.10;35.20;;;;;;4932155;28;20046;-84
2022/03/16 12:56:58;;;;;;;4.47;3.85;;;9.10;35.20;;;;;;4939115;28;20046;-84
2022/03/16 12:59:36;;;;;;;5.65;3.80;;;9.00;35.20;;;;;;4957015;28;20410;-87
2022/03/16 13:02:05;;;;;;;4.90;3.65;;;9.00;35.20;;;;;;4922948;28;20043;-86
2022/03/16 13:04:32;;;;;;;5.68;3.85;;;9.00;35.10;;;;;;4956210;28;20039;-83
2022/03/16 13:06:59;;;;;;;5.30;3.53;;;9.00;35.10;;;;;;4956306;28;20133;-84
2022/03/16 13:09:33;;;;;;;5.47;3.55;;;9.00;35.00;;;;;;4945970;28;20394;-83